TAF Text Data
IDs:
Format:
Raw Decoded Include METAR

Data at: 1813 UTC 03 Jul 2020

METAR for:KRWF (Redwood Falls Muni, MN, US)
Text:KRWF 031753Z AUTO 13007KT 10SM SCT035 30/21 A3009 RMK AO2 SLP181 T03000206 10300 20211 50006
Temperature: 30.0°C ( 86°F)
Dewpoint: 20.6°C ( 69°F) [RH = 57%]
Pressure (altimeter):30.09 inches Hg (1019.0 mb) [Sea level pressure: 1018.1 mb]
Winds:from the SE (130 degrees) at 8 MPH (7 knots; 3.6 m/s)
Visibility:10 or more sm (16+ km)
Ceiling:at least 12,000 feet AGL
Clouds: scattered clouds at 3500 feet AGL
QC Flag:automated observation with no human augmentation

TAF for:KRWF (Redwood Falls Muni, MN, US) issued at 1735 UTC 03 Jul 2020
Text:KRWF 031735Z 0318/0418 VRB04KT P6SM FEW050 SCT250
Forecast period:1800 UTC 03 July 2020 to 0200 UTC 04 July 2020
Forecast type:FROM: standard forecast or significant change
Winds:variable direction winds at 5 MPH (4 knots; 2.1 m/s)
Visibility:6 or more sm (10+ km)
Ceiling:at least 12,000 feet AGL
Clouds: few clouds at 5000 feet AGL, scattered clouds at 25000 feet AGL
Text:FM040200 15004KT P6SM SKC
Forecast period:0200 to 1800 UTC 04 July 2020
Forecast type:FROM: standard forecast or significant change
Winds:from the SSE (150 degrees) at 5 MPH (4 knots; 2.1 m/s)
Visibility:6 or more sm (10+ km)
Ceiling:at least 12,000 feet AGL
Clouds:clear skies